PAJN/JNU METAR and TAF weather

Enter ICAO airport designator
Station Type Date Time Source
PAJN METAR 2019/08/22 08:53 UTC NOAA

PAJN 220853Z 07007KT 10SM SCT047 BKN070 11/08 A2992 RMK AO2 SLP132 T01110078 401720094 51013


Station Type Date Time Source
PAJN Decoded METAR 2019/08/22 08:53 UTC NOAA

Station name not available
Aug 22, 2019 - 04:53 AM EDT / 2019.08.22 0853 UTC
Wind: from the ENE (070 degrees) at 8 MPH (7 KT):0
Visibility: 10 mile(s):0
Sky conditions: mostly cloudy
Temperature: 52.0 F (11.1 C)
Dew Point: 46.0 F (7.8 C)
Relative Humidity: 80%
Pressure (altimeter): 29.92 in. Hg (1013 hPa)
Pressure tendency: 0.04 inches (1.3 hPa) higher than three hours ago
ob: PAJN 220853Z 07007KT 10SM SCT047 BKN070 11/08 A2992 RMK AO2 SLP132 T01110078 401720094 51013
cycle: 9

Station Type Date Time Source
PAJN TAF 2019/08/22 06:45 UTC NOAA

TAF PAJN 220543Z 2206/2306 10009KT P6SM FEW080 SCT200
FM221600 10012KT P6SM OVC040
FM222300 11012KT 6SM -RA OVC050

Example: see airport list